Flight Track Log - Related Links

Times and Time Zones

All times are in EDT time to prevent confusion due to time zone crossing. See the UAL4695 flight status page for this flight to view local times or setup timezone preferences in your user account.

Time Position Orientation Groundspeed Altitude Reporting Facility
EDT Latitude Longitude Course Direction KTS MPH feet Rate Location/Type
Mon 05:07:20 PM 32.1953 -81.0686 North 245 282 5,400  Level Jacksonville Center
Mon 05:08:00 PM 32.5073 -81.1533 North  Level FlightAware Approximate
Mon 05:08:20 PM 32.2561 -81.1017 335° Northwest 236 272 7,300  Level Jacksonville Center
Mon 05:09:00 PM 32.6067 -81.1500 North  Level FlightAware Approximate
Mon 05:09:20 PM 32.3236 -81.1372 336° Northwest 261 300 9,600  Level Jacksonville Center
Mon 05:10:00 PM 32.7061 -81.1492 North  Level FlightAware Approximate
Mon 05:10:20 PM 32.3992 -81.1728 338° Northwest 276 318 10,500  Level Jacksonville Center
Mon 05:11:00 PM 32.8051 -81.1369 North  Level FlightAware Approximate
Mon 05:11:20 PM 32.4803 -81.1489 14° North 309 356 11,500  Level Jacksonville Center
Mon 05:12:00 PM 32.9040 -81.1245 North  Level FlightAware Approximate
Mon 05:12:20 PM 32.5775 -81.0953 25° Northeast 334 384 13,000  Level Jacksonville Center
Mon 05:13:20 PM 32.6708 -81.0417 26° Northeast 356 410 14,200 1,100 Climbing Jacksonville Center
Mon 05:14:20 PM 32.7619 -80.9906 25° Northeast 356 410 15,200 1,000 Climbing Jacksonville Center
Mon 05:15:20 PM 32.8569 -80.9364 26° Northeast 361 415 16,200 1,000 Climbing Jacksonville Center
Mon 05:16:20 PM 32.9503 -80.8850 25° Northeast 366 421 17,200 950 Climbing Jacksonville Center
Mon 05:17:20 PM 33.0472 -80.8283 26° Northeast 372 428 18,100 1,000 Climbing Jacksonville Center
Mon 05:18:20 PM 33.1444 -80.7764 24° Northeast 377 434 19,200 1,050 Climbing Jacksonville Center
Mon 05:19:20 PM 33.2439 -80.7219 25° Northeast 377 434 20,200 1,000 Climbing Jacksonville Center
Mon 05:20:20 PM 33.3450 -80.6622 26° Northeast 387 445 21,200 1,050 Climbing Jacksonville Center
Mon 05:21:20 PM 33.4442 -80.6050 26° Northeast 387 445 22,300 1,050 Climbing Jacksonville Center
Mon 05:22:20 PM 33.5494 -80.5450 25° Northeast 399 459 23,300 1,100 Climbing Jacksonville Center
Mon 05:23:20 PM 33.6506 -80.4850 26° Northeast 399 459 24,500 1,250 Climbing Jacksonville Center
Mon 05:24:20 PM 33.7539 -80.4294 24° Northeast 394 453 25,800 1,300 Climbing Jacksonville Center
Mon 05:25:20 PM 33.8531 -80.3694 27° Northeast 394 453 27,100 1,300 Climbing Jacksonville Center
Mon 05:26:20 PM 33.9519 -80.3139 25° Northeast 394 453 28,400 1,200 Climbing Jacksonville Center
Mon 05:27:20 PM 34.0489 -80.2583 25° Northeast 394 453 29,500 1,100 Climbing Jacksonville Center
Mon 05:28:20 PM 34.1458 -80.2003 26° Northeast 389 448 30,600 1,150 Climbing Jacksonville Center
Mon 05:29:20 PM 34.2444 -80.1419 26° Northeast 384 442 31,800 1,185 Climbing Jacksonville Center
Mon 05:31:02 PM 34.4081 -80.0447 26° Northeast 389 448 33,800 1,074 Climbing Washington Center
Mon 05:32:02 PM 34.4978 -79.9917 26° Northeast 389 448 34,700 600 Climbing Washington Center
Mon 05:33:02 PM 34.5978 -79.9367 24° Northeast 389 448 35,000 150 Climbing Washington Center
Mon 05:34:02 PM 34.7044 -79.8742 26° Northeast 399 459 35,000  Level Washington Center
Mon 05:35:02 PM 34.8131 -79.8089 26° Northeast 415 478 35,000  Level Washington Center
Mon 05:36:02 PM 34.9303 -79.7392 26° Northeast 436 502 35,000  Level Washington Center
Mon 05:37:02 PM 35.0453 -79.6739 25° Northeast 446 513 35,000  Level Washington Center
Mon 05:38:03 PM 35.1603 -79.6011 27° Northeast 456 525 35,000  Level Washington Center
Mon 05:39:02 PM 35.2714 -79.5253 29° Northeast 461 531 35,000  Level Washington Center
Mon 05:40:02 PM 35.3847 -79.4414 31° Northeast 466 536 35,000  Level Washington Center
Mon 05:41:03 PM 35.4978 -79.3603 30° Northeast 471 542 35,000  Level Washington Center
Mon 05:42:02 PM 35.6067 -79.2811 31° Northeast 465 535 35,000  Level Washington Center
Mon 05:43:02 PM 35.7200 -79.1967 31° Northeast 465 535 35,000  Level Washington Center
Mon 05:44:02 PM 35.8308 -79.1172 30° Northeast 460 529 35,000  Level Washington Center
Mon 05:45:03 PM 35.9417 -79.0350 31° Northeast 460 529 35,000  Level Washington Center
Mon 05:46:02 PM 36.0653 -78.9453 30° Northeast 460 529 35,000  Level Washington Center
Mon 05:47:02 PM 36.1761 -78.8600 32° Northeast 460 529 35,000  Level Washington Center
Mon 05:48:02 PM 36.2867 -78.7819 30° Northeast 460 529 35,000  Level Washington Center
Mon 05:49:02 PM 36.3975 -78.6964 32° Northeast 460 529 35,000  Level Washington Center
Mon 05:50:03 PM 36.5081 -78.6128 31° Northeast 460 529 35,000  Level Washington Center
Mon 05:51:02 PM 36.6167 -78.5317 31° Northeast 460 529 35,000  Level Washington Center
Mon 05:52:02 PM 36.7103 -78.4550 33° Northeast 460 529 35,000  Level Washington Center
Mon 05:53:02 PM 36.8228 -78.3708 31° Northeast 460 529 35,000  Level Washington Center
Mon 05:54:02 PM 36.9311 -78.2889 31° Northeast 460 529 35,000  Level Washington Center
Mon 05:55:02 PM 37.0519 -78.1942 32° Northeast 460 529 35,000  Level Washington Center
Mon 05:56:02 PM 37.1475 -78.1219 31° Northeast 460 529 35,000  Level Washington Center
Mon 05:57:02 PM 37.2556 -78.0394 31° Northeast 454 522 35,000  Level Washington Center
Mon 05:58:02 PM 37.3617 -77.9567 32° Northeast 454 522 35,000  Level Washington Center
Mon 05:59:02 PM 37.4717 -77.8736 31° Northeast 454 522 35,000  Level Washington Center
Mon 06:00:02 PM 37.5775 -77.7850 34° Northeast 459 528 35,000  Level Washington Center
Mon 06:01:02 PM 37.6794 -77.6908 36° Northeast 459 528 35,000  Level Washington Center
Mon 06:02:03 PM 37.7811 -77.5992 35° Northeast 454 522 35,000  Level Washington Center
Mon 06:03:02 PM 37.8828 -77.5072 36° Northeast 454 522 35,000  Level Washington Center
Mon 06:04:02 PM 37.9864 -77.4150 35° Northeast 454 522 35,000  Level Washington Center
Mon 06:05:03 PM 38.0858 -77.3197 37° Northeast 454 522 35,000  Level Washington Center
Mon 06:06:02 PM 38.1828 -77.2294 36° Northeast 449 517 35,000  Level Washington Center
Mon 06:07:02 PM 38.2842 -77.1364 36° Northeast 444 511 35,000  Level Washington Center
Mon 06:08:03 PM 38.3917 -77.0381 36° Northeast 439 505 35,000  Level Washington Center
Mon 06:09:03 PM 38.4908 -76.9472 36° Northeast 439 505 35,000  Level Washington Center
Mon 06:10:02 PM 38.5897 -76.8558 36° Northeast 439 505 35,000  Level Washington Center
Mon 06:11:02 PM 38.6867 -76.7644 36° Northeast 439 505 35,000  Level Washington Center
Mon 06:12:02 PM 38.7814 -76.6594 41° Northeast 439 505 35,000  Level Washington Center
Mon 06:13:02 PM 38.8742 -76.5542 41° Northeast 439 505 35,000 -500 Level Washington Center
Mon 06:14:02 PM 38.9667 -76.4458 42° Northeast 439 505 34,000 -1,550 Descending Washington Center
Mon 06:15:02 PM 39.0569 -76.3400 42° Northeast 439 505 31,900 -2,200 Descending Washington Center
Mon 06:16:02 PM 39.1492 -76.2339 42° Northeast 439 505 29,600 -2,380 Descending Washington Center
Mon 06:17:03 PM 39.2414 -76.1275 42° Northeast 439 505 27,100 -1,350 Descending Washington Center
Mon 06:18:02 PM 39.3336 -76.0183 42° Northeast 439 505 26,900 -50 Descending Washington Center
Mon 06:19:02 PM 39.4236 -75.9114 43° Northeast 439 505 27,000  Climbing Washington Center
Mon 06:20:03 PM 39.5175 -75.8014 42° Northeast 439 505 26,900 -1,200 Descending Washington Center
Mon 06:21:02 PM 39.6053 -75.6967 43° Northeast 439 505 24,600 -2,370 Descending Washington Center
Mon 06:22:02 PM 39.6928 -75.5942 42° Northeast 427 491 22,200 -2,250 Descending Washington Center
Mon 06:23:02 PM 39.7739 -75.4942 43° Northeast 414 476 20,100 -2,050 Descending Washington Center
Mon 06:24:02 PM 39.8572 -75.3942 43° Northeast 409 471 18,100 -1,650 Descending Washington Center
Mon 06:25:02 PM 39.9278 -75.3075 43° Northeast 396 456 16,800 -1,785 Descending Washington Center
Mon 06:26:03 PM 40.0067 -75.2122 43° Northeast 391 450 14,500 -2,200 Descending Washington Center
Mon 06:27:02 PM 40.0833 -75.1197 43° Northeast 386 444 12,400 -1,966 Descending Washington Center
Mon 06:28:02 PM 40.1539 -75.0325 43° Northeast 366 421 10,600 -1,626 Descending Washington Center
Mon 06:28:49 PM 40.2000 -74.9667 47° Northeast 303 349 9,500 -1,402 Descending New York TRACON
Mon 06:29:49 PM 40.2667 -74.9000 37° Northeast 286 329 8,100 -1,150 Descending New York TRACON
Mon 06:30:49 PM 40.3000 -74.8000 66° East 280 322 7,200 -550 Descending New York TRACON
Mon 06:31:49 PM 40.3167 -74.7000 78° East 283 326 7,000 -500 Descending New York TRACON
Mon 06:32:49 PM 40.3500 -74.6000 66° East 287 330 6,200 -522 Descending New York TRACON
Mon 06:33:44 PM 40.4000 -74.6167 346° North 270 311 6,000 -105 Descending New York TRACON
Mon 06:34:43 PM 40.4833 -74.6333 351° North 262 302 6,000  Level New York TRACON
Mon 06:35:43 PM 40.5500 -74.6333 360° North 268 308 6,000  Level New York TRACON
Mon 06:36:44 PM 40.6167 -74.6167 11° North 263 303 6,000  Level New York TRACON
Mon 06:37:44 PM 40.7000 -74.6000 North 265 305 6,000  Level New York TRACON
Mon 06:38:43 PM 40.7667 -74.5833 11° North 265 305 6,000 -300 Level New York TRACON
Mon 06:39:44 PM 40.8333 -74.5667 11° North 267 307 5,400 -476 Descending New York TRACON
Mon 06:40:49 PM 40.8833 -74.4833 52° Northeast 265 305 5,000 -192 Descending New York TRACON
Mon 06:41:49 PM 40.9333 -74.4000 52° Northeast 265 305 5,000  Level New York TRACON
Mon 06:42:49 PM 40.9500 -74.3167 75° East 250 288 5,000 -250 Level New York TRACON
Mon 06:43:49 PM 40.9167 -74.2333 118° Southeast 218 251 4,500 -500 Descending New York TRACON
Mon 06:44:49 PM 40.9000 -74.1833 114° Southeast 203 234 4,000 -550 Descending New York TRACON
Mon 06:45:49 PM 40.8667 -74.1167 123° Southeast 198 228 3,400 -550 Descending New York TRACON
Mon 06:46:49 PM 40.8333 -74.0833 143° Southeast 182 209 2,900 -700 Descending New York TRACON
Mon 06:47:49 PM 40.7833 -74.1000 194° South 172 198 2,000 -900 Descending New York TRACON

Login

Don't have an account? Register now (free) for customized features, flight alerts, and more!